Main page
METAR-TAF:

METAR-TAF

Airports :

Dubai, United Arab Emirates

Dubai International Airport

latitude: 25-15-10N, longitude: 055-21-52E, elevation: 8 m

Current weather observation

The report was made 14 minutes ago, at 03:00 UTC
Wind 6 kt from the East, varying between Northeast and East/Southeast
Temperature 22°C
Humidity 53%
Pressure 1019 hPa
Visibility 10 km or more
no clouds below 1500 m and no cumulonimbus

METAR: OMDB 190300Z 09006KT 050V120 CAVOK 22/12 Q1019 NOSIG

Time: 07:14 (03:14 UTC)

Forecast

The report was made 4 hours and 12 minutes ago, at 23:02 UTC
Forecast valid from 19 at 00 UTC to 20 at 06 UTC
Wind 7 kt from the East
Visibility 10 km or more
no clouds below 1500 m and no cumulonimbus
Becoming
from 19 at 09 UTC to 19 at 11 UTC
Wind 12 kt from the North
Becoming
from 19 at 15 UTC to 19 at 17 UTC
Wind 7 kt from the East

TAF: OMDB 182302Z 1900/2006 09007KT CAVOK BECMG 1909/1911 35012KT BECMG 1915/1917 10007KT

Weather observations and forecasts of more than 4000 airports (METAR and TAF reports).

The available stations are represented by yellow and red dots on the map.

Hover mouse over dot to see the name of the station.

Then click to see weather observations and forecasts.

To change the map : click on the green buttons with a black cross to zoom in, on the green button with a dash to zoom out, or on the green arrows for adjacent maps.


METAR-TAF: